createdAt,value
2023-05-11T00:01:13.027Z,27.48
2023-05-11T00:03:25.696Z,27.70
2023-05-11T00:05:38.527Z,27.96
2023-05-11T00:07:54.464Z,27.95
2023-05-11T00:10:07.212Z,27.76
2023-05-11T00:12:19.652Z,27.44
2023-05-11T00:14:32.326Z,27.79
2023-05-11T00:16:44.887Z,27.97
2023-05-11T00:18:57.722Z,27.47
2023-05-11T00:21:10.565Z,27.63
2023-05-11T00:23:23.122Z,27.92
2023-05-11T00:25:36.071Z,27.70
2023-05-11T00:27:48.584Z,27.59
2023-05-11T00:30:01.169Z,27.65
2023-05-11T00:32:25.278Z,27.66
2023-05-11T00:34:37.887Z,27.63
2023-05-11T00:36:50.659Z,28.04
2023-05-11T00:39:03.152Z,28.14
2023-05-11T00:41:16.101Z,27.95
2023-05-11T00:43:28.748Z,28.13
2023-05-11T00:45:41.611Z,28.31
2023-05-11T00:47:54.464Z,28.15
2023-05-11T00:50:07.658Z,28.03
2023-05-11T00:52:31.377Z,27.85
2023-05-11T00:54:44.558Z,28.01
2023-05-11T00:56:57.689Z,28.24
2023-05-11T00:59:10.723Z,28.11
2023-05-11T01:01:23.594Z,28.21
2023-05-11T01:03:41.126Z,28.21
2023-05-11T01:06:01.729Z,28.12
2023-05-11T01:08:20.920Z,28.08
2023-05-11T01:10:43.504Z,27.97
2023-05-11T01:13:02.518Z,27.81
2023-05-11T01:15:37.461Z,27.92
2023-05-11T01:17:59.495Z,27.75
2023-05-11T01:20:19.755Z,27.68
2023-05-11T01:22:52.335Z,27.73
2023-05-11T01:25:36.197Z,27.49
2023-05-11T01:28:13.480Z,27.60
2023-05-11T01:30:43.353Z,27.58
2023-05-11T01:32:57.975Z,27.75
2023-05-11T01:35:25.247Z,27.68
2023-05-11T01:37:39.783Z,27.54
2023-05-11T01:39:57.596Z,27.64
2023-05-11T01:42:13.076Z,27.81
2023-05-11T01:44:28.836Z,27.82
2023-05-11T01:46:42.837Z,27.88
2023-05-11T01:49:00.563Z,27.83
2023-05-11T01:51:17.818Z,28.00
2023-05-11T01:53:35.626Z,28.00
2023-05-11T01:55:48.836Z,28.26
2023-05-11T01:58:02.844Z,28.41
2023-05-11T02:00:19.993Z,28.49
2023-05-11T02:02:40.451Z,28.75
2023-05-11T02:04:54.691Z,28.71
2023-05-11T02:07:09.774Z,29.18
2023-05-11T02:09:25.008Z,29.61
2023-05-11T02:11:39.247Z,30.01
2023-05-11T02:13:53.976Z,30.34
2023-05-11T02:16:08.144Z,30.61
2023-05-11T02:18:22.636Z,30.95
2023-05-11T02:20:42.377Z,31.28
2023-05-11T02:23:06.260Z,31.67
2023-05-11T02:25:20.026Z,31.98
2023-05-11T02:27:37.017Z,32.18
2023-05-11T02:29:50.158Z,32.39
2023-05-11T02:32:10.424Z,32.59
2023-05-11T02:34:27.741Z,32.75
2023-05-11T02:36:45.017Z,32.87
2023-05-11T02:39:20.400Z,33.12
2023-05-11T02:41:35.189Z,33.33
2023-05-11T02:43:52.988Z,33.46
2023-05-11T02:46:09.956Z,33.48
2023-05-11T02:48:30.185Z,33.65
2023-05-11T02:50:46.500Z,33.86
2023-05-11T02:53:02.727Z,34.16
2023-05-11T02:55:18.366Z,34.34
2023-05-11T02:57:31.663Z,34.48
2023-05-11T02:59:48.361Z,34.62
2023-05-11T03:02:01.554Z,34.74
2023-05-11T03:04:17.942Z,34.84
2023-05-11T03:06:30.596Z,34.97
2023-05-11T03:08:44.031Z,35.12
2023-05-11T03:11:03.973Z,35.17
2023-05-11T03:13:28.404Z,35.24
2023-05-11T03:15:44.948Z,35.29
2023-05-11T03:17:58.579Z,35.28
2023-05-11T03:20:18.036Z,35.34
2023-05-11T03:22:31.128Z,35.28
2023-05-11T03:24:44.147Z,35.65
2023-05-11T03:26:58.458Z,35.90
2023-05-11T03:29:15.006Z,36.18
2023-05-11T03:31:27.634Z,36.45
2023-05-11T03:33:41.529Z,36.64
2023-05-11T03:36:02.468Z,36.97
2023-05-11T03:38:18.369Z,37.07
2023-05-11T03:40:34.346Z,37.22
2023-05-11T03:42:48.888Z,37.36
2023-05-11T03:45:03.553Z,37.45
2023-05-11T03:47:18.724Z,37.61
2023-05-11T03:49:32.504Z,37.89
2023-05-11T03:51:45.883Z,38.03
2023-05-11T03:53:59.246Z,38.26
2023-05-11T03:56:12.765Z,38.26
2023-05-11T03:58:25.233Z,38.38
2023-05-11T04:00:44.198Z,38.39
2023-05-11T04:03:17.256Z,38.43
2023-05-11T04:05:30.522Z,38.38
2023-05-11T04:07:44.844Z,38.30
2023-05-11T04:09:57.664Z,38.36
2023-05-11T04:12:10.998Z,38.54
2023-05-11T04:14:24.041Z,38.49
2023-05-11T04:16:36.999Z,38.63
2023-05-11T04:18:49.659Z,38.67
2023-05-11T04:21:22.275Z,38.81
2023-05-11T04:23:38.301Z,38.83
2023-05-11T04:25:51.035Z,39.07
2023-05-11T04:28:03.688Z,38.98
2023-05-11T04:30:18.209Z,39.09
2023-05-11T04:32:31.451Z,39.07
2023-05-11T04:34:44.514Z,39.27
2023-05-11T04:37:01.672Z,39.40
2023-05-11T04:39:14.949Z,39.41
2023-05-11T04:41:28.432Z,39.61
2023-05-11T04:43:43.311Z,39.72
2023-05-11T04:45:56.527Z,39.72
2023-05-11T04:48:12.219Z,39.74
2023-05-11T04:50:25.515Z,39.86
2023-05-11T04:52:57.954Z,39.89
2023-05-11T04:55:12.235Z,39.92
2023-05-11T04:57:28.278Z,39.99
2023-05-11T04:59:44.186Z,40.04
2023-05-11T05:02:07.907Z,40.12
2023-05-11T05:04:23.516Z,40.11
2023-05-11T05:06:40.210Z,40.23
2023-05-11T05:08:52.854Z,40.30
2023-05-11T05:11:09.089Z,40.28
2023-05-11T05:13:32.827Z,40.34
2023-05-11T05:15:56.866Z,40.38
2023-05-11T05:18:19.951Z,40.42
2023-05-11T05:20:32.654Z,40.52
2023-05-11T05:22:45.183Z,40.60
2023-05-11T05:25:00.850Z,40.65
2023-05-11T05:27:14.457Z,40.73
2023-05-11T05:29:27.662Z,40.81
2023-05-11T05:31:40.626Z,40.87
2023-05-11T05:33:54.243Z,40.95
2023-05-11T05:36:07.864Z,41.00
2023-05-11T05:38:21.348Z,41.04
2023-05-11T05:40:38.403Z,40.99
2023-05-11T05:42:51.441Z,41.09
2023-05-11T05:45:08.885Z,41.19
2023-05-11T05:47:21.512Z,41.25
2023-05-11T05:49:35.987Z,41.36
2023-05-11T05:51:51.757Z,41.37
2023-05-11T05:54:04.483Z,41.42
2023-05-11T05:56:17.203Z,41.48
2023-05-11T05:58:29.687Z,41.47
2023-05-11T06:00:43.210Z,41.53
2023-05-11T06:02:56.302Z,41.64
2023-05-11T06:05:12.458Z,41.52
2023-05-11T06:07:28.038Z,41.50
2023-05-11T06:09:51.744Z,41.39
2023-05-11T06:12:04.800Z,41.33
2023-05-11T06:14:18.484Z,41.43
2023-05-11T06:16:31.557Z,41.34
2023-05-11T06:18:46.930Z,41.59
2023-05-11T06:21:19.900Z,41.43
2023-05-11T06:23:35.487Z,41.54
2023-05-11T06:25:51.228Z,41.49
2023-05-11T06:28:05.507Z,41.50
2023-05-11T06:30:25.002Z,41.67
2023-05-11T06:32:38.591Z,41.64
2023-05-11T06:34:51.904Z,41.65
2023-05-11T06:37:06.753Z,41.64
2023-05-11T06:39:19.317Z,41.67
2023-05-11T06:41:32.339Z,41.78
2023-05-11T06:43:45.094Z,41.82
2023-05-11T06:46:17.243Z,41.92
2023-05-11T06:48:30.783Z,42.00
2023-05-11T06:50:53.949Z,42.06
2023-05-11T06:53:11.858Z,42.19
2023-05-11T06:55:24.523Z,42.24
2023-05-11T06:57:37.371Z,42.47
2023-05-11T06:59:50.126Z,42.52
2023-05-11T07:02:02.605Z,42.60
2023-05-11T07:04:15.442Z,42.60
2023-05-11T07:06:28.267Z,42.63
2023-05-11T07:08:40.660Z,42.90
2023-05-11T07:10:53.461Z,42.92
2023-05-11T07:13:06.459Z,43.02
2023-05-11T07:15:19.105Z,43.25
2023-05-11T07:17:31.703Z,43.28
2023-05-11T07:19:44.507Z,43.38
2023-05-11T07:21:57.237Z,43.44
2023-05-11T07:24:10.683Z,43.67
2023-05-11T07:26:23.176Z,43.71
2023-05-11T07:28:35.535Z,43.92
2023-05-11T07:30:48.386Z,44.07
2023-05-11T07:33:00.865Z,44.06
2023-05-11T07:35:16.069Z,44.21
2023-05-11T07:37:28.405Z,44.27
2023-05-11T07:39:41.185Z,44.38
2023-05-11T07:41:53.766Z,44.51
2023-05-11T07:44:08.211Z,44.55
2023-05-11T07:46:20.828Z,44.68
2023-05-11T07:48:33.487Z,44.62
2023-05-11T07:50:45.846Z,44.79
2023-05-11T07:53:01.435Z,44.98
2023-05-11T07:55:14.974Z,45.05
2023-05-11T07:57:27.543Z,45.16
2023-05-11T07:59:40.368Z,45.31
2023-05-11T08:01:56.550Z,45.39
2023-05-11T08:04:09.167Z,45.54
2023-05-11T08:06:21.918Z,45.65
2023-05-11T08:08:34.976Z,45.76
2023-05-11T08:10:47.551Z,45.88
2023-05-11T08:13:00.147Z,45.85
2023-05-11T08:15:14.512Z,45.87
2023-05-11T08:17:27.052Z,45.93
2023-05-11T08:19:39.285Z,45.98
2023-05-11T08:21:51.639Z,45.99
2023-05-11T08:24:04.110Z,46.06
2023-05-11T08:26:17.129Z,46.19
2023-05-11T08:28:40.663Z,46.23
2023-05-11T08:31:04.116Z,46.33
2023-05-11T08:33:36.728Z,46.43
2023-05-11T08:35:50.271Z,46.51
2023-05-11T08:38:02.822Z,46.63
2023-05-11T08:40:17.920Z,46.71
2023-05-11T08:42:32.384Z,46.77
2023-05-11T08:44:48.655Z,46.83
2023-05-11T08:47:18.825Z,47.01
2023-05-11T08:49:34.058Z,47.08
2023-05-11T08:51:46.458Z,47.21
2023-05-11T08:54:00.815Z,47.38
2023-05-11T08:56:16.224Z,47.44
2023-05-11T08:58:29.546Z,47.55
2023-05-11T09:00:42.571Z,47.64
2023-05-11T09:02:56.226Z,47.80
2023-05-11T09:05:09.769Z,47.95
2023-05-11T09:07:23.400Z,48.04
2023-05-11T09:09:37.111Z,48.12
2023-05-11T09:11:50.300Z,48.31
2023-05-11T09:14:03.072Z,48.37
2023-05-11T09:16:32.641Z,48.45
2023-05-11T09:19:02.222Z,48.63
2023-05-11T09:21:15.728Z,48.70
2023-05-11T09:23:31.041Z,49.00
2023-05-11T09:25:43.785Z,48.87
2023-05-11T09:27:56.756Z,49.03
2023-05-11T09:30:23.472Z,49.17
2023-05-11T09:32:52.875Z,49.18
2023-05-11T09:35:21.760Z,49.33
2023-05-11T09:37:34.856Z,49.51
2023-05-11T09:42:20.584Z,49.59
2023-05-11T09:44:39.188Z,49.72
2023-05-11T09:46:52.192Z,49.80
2023-05-11T09:49:06.600Z,49.77
2023-05-11T09:51:22.210Z,49.88
2023-05-11T09:53:44.204Z,49.91
2023-05-11T09:55:59.499Z,50.13
2023-05-11T09:58:12.269Z,50.24
2023-05-11T10:03:11.270Z,50.60
2023-05-11T10:05:23.652Z,51.21
2023-05-11T10:07:37.331Z,51.52
2023-05-11T10:09:49.549Z,51.80
2023-05-11T10:12:02.760Z,52.12
2023-05-11T10:14:17.186Z,52.55
2023-05-11T10:16:29.549Z,52.66
2023-05-11T10:18:42.466Z,52.73
2023-05-11T10:20:55.410Z,52.95
2023-05-11T10:23:08.445Z,52.96
2023-05-11T10:25:21.356Z,52.94
2023-05-11T10:31:10.321Z,53.46
2023-05-11T10:33:23.436Z,53.38
2023-05-11T10:35:36.631Z,53.52
2023-05-11T10:37:48.973Z,53.54
2023-05-11T10:40:03.092Z,53.73
2023-05-11T10:42:39.202Z,53.77
2023-05-11T10:45:22.614Z,53.80
2023-05-11T10:48:17.683Z,54.08
2023-05-11T10:50:49.591Z,54.31
2023-05-11T10:53:19.227Z,54.47
2023-05-11T10:55:46.878Z,54.70
2023-05-11T10:58:11.793Z,54.74
2023-05-11T11:00:57.216Z,54.83
2023-05-11T11:03:17.382Z,54.78
2023-05-11T11:05:41.025Z,55.00
2023-05-11T11:08:10.307Z,54.95
2023-05-11T11:10:35.999Z,54.95
2023-05-11T11:13:07.934Z,54.96
2023-05-11T11:15:20.444Z,55.02
2023-05-11T11:17:36.039Z,55.19
2023-05-11T11:19:48.330Z,54.90
2023-05-11T11:22:01.230Z,55.00
2023-05-11T11:24:33.842Z,55.07
2023-05-11T11:26:55.384Z,54.82
2023-05-11T11:29:19.732Z,54.87
2023-05-11T11:31:34.558Z,55.15
2023-05-11T11:33:47.114Z,54.98
2023-05-11T11:36:00.452Z,55.18
2023-05-11T11:38:13.758Z,55.05
2023-05-11T11:40:50.655Z,55.32
2023-05-11T11:43:16.072Z,55.21
2023-05-11T11:45:39.618Z,55.32
2023-05-11T11:48:15.933Z,55.64
2023-05-11T11:50:33.549Z,55.50
2023-05-11T11:52:46.090Z,55.61
2023-05-11T11:55:00.720Z,55.65
2023-05-11T11:57:52.233Z,55.76
2023-05-11T12:00:06.608Z,55.86
2023-05-11T12:02:26.140Z,55.85
2023-05-11T12:04:59.329Z,56.11
2023-05-11T12:07:13.847Z,56.15
2023-05-11T12:09:26.704Z,56.05
2023-05-11T12:11:40.644Z,56.19
2023-05-11T12:13:53.474Z,56.30
2023-05-11T12:16:19.771Z,56.43
2023-05-11T12:18:32.579Z,56.45
2023-05-11T12:20:45.046Z,56.66
2023-05-11T12:22:57.595Z,56.78
2023-05-11T12:25:14.507Z,56.65
2023-05-11T12:27:29.895Z,56.72
2023-05-11T12:29:42.454Z,57.26
2023-05-11T12:31:54.960Z,57.43
2023-05-11T12:34:07.528Z,57.61
2023-05-11T12:36:21.351Z,57.65
2023-05-11T12:38:35.425Z,57.76
2023-05-11T12:40:53.059Z,57.91
2023-05-11T12:43:05.664Z,57.92
2023-05-11T12:45:21.149Z,57.97
2023-05-11T12:47:34.323Z,58.14
2023-05-11T12:49:47.330Z,58.30
2023-05-11T12:52:09.853Z,58.63
2023-05-11T12:54:33.381Z,58.87
2023-05-11T12:56:55.104Z,59.24
2023-05-11T12:59:08.353Z,59.31
2023-05-11T13:01:27.388Z,59.52
2023-05-11T13:03:39.937Z,59.65
2023-05-11T13:05:52.720Z,59.84
2023-05-11T13:08:06.829Z,60.24
2023-05-11T13:10:30.151Z,60.37
2023-05-11T13:12:54.308Z,60.43
2023-05-11T13:15:14.480Z,60.54
2023-05-11T13:17:40.155Z,60.50
2023-05-11T13:19:52.692Z,60.64
2023-05-11T13:22:05.340Z,60.90
2023-05-11T13:24:25.612Z,60.90
2023-05-11T13:26:38.152Z,61.06
2023-05-11T13:28:58.389Z,61.10
2023-05-11T13:31:22.092Z,61.21
2023-05-11T13:33:35.814Z,61.22
2023-05-11T13:35:48.785Z,61.29
2023-05-11T13:38:01.648Z,61.39
2023-05-11T13:40:15.944Z,61.30
2023-05-11T13:42:29.234Z,61.65
2023-05-11T13:44:41.785Z,61.70
2023-05-11T13:46:54.140Z,61.68
2023-05-11T13:49:06.623Z,61.74
2023-05-11T13:51:18.896Z,61.66
2023-05-11T13:53:31.286Z,61.79
2023-05-11T13:55:45.471Z,61.95
2023-05-11T13:57:58.116Z,61.85
2023-05-11T14:00:12.075Z,61.98
2023-05-11T14:02:25.931Z,62.06
2023-05-11T14:04:38.654Z,62.03
2023-05-11T14:06:51.387Z,62.05
2023-05-11T14:09:04.125Z,62.16
2023-05-11T14:11:16.450Z,62.21
2023-05-11T14:13:29.283Z,62.23
2023-05-11T14:15:41.586Z,62.27
2023-05-11T14:17:54.448Z,62.37
2023-05-11T14:20:07.621Z,62.28
2023-05-11T14:22:20.010Z,62.34
2023-05-11T14:24:32.389Z,62.28
2023-05-11T14:26:44.850Z,62.08
2023-05-11T14:28:57.903Z,62.27
2023-05-11T14:31:10.847Z,62.20
2023-05-11T14:33:23.488Z,62.04
2023-05-11T14:35:39.070Z,62.28
2023-05-11T14:37:52.075Z,62.24
2023-05-11T14:40:04.784Z,62.25
2023-05-11T14:42:17.848Z,62.09
2023-05-11T14:44:31.211Z,62.28
2023-05-11T14:46:43.769Z,62.19
2023-05-11T14:48:57.775Z,62.18
2023-05-11T14:51:10.550Z,62.02
2023-05-11T14:53:23.763Z,61.91
2023-05-11T14:55:36.497Z,62.16
2023-05-11T14:57:48.885Z,61.84
2023-05-11T15:00:01.692Z,62.23
2023-05-11T15:02:14.130Z,62.13
2023-05-11T15:04:27.082Z,62.01
2023-05-11T15:06:40.205Z,61.61
2023-05-11T15:08:53.567Z,61.55
2023-05-11T15:11:06.213Z,61.35
2023-05-11T15:13:20.971Z,61.08
2023-05-11T15:15:35.270Z,61.13
2023-05-11T15:17:47.715Z,61.36
2023-05-11T15:20:00.546Z,61.18
2023-05-11T15:22:13.107Z,61.02
2023-05-11T15:24:25.810Z,60.57
2023-05-11T15:26:38.503Z,60.44
2023-05-11T15:28:50.807Z,60.35
2023-05-11T15:31:03.142Z,60.24
2023-05-11T15:33:17.033Z,59.91
2023-05-11T15:35:29.819Z,59.53
2023-05-11T15:37:42.382Z,58.94
2023-05-11T15:39:55.210Z,58.59
2023-05-11T15:42:09.922Z,58.34
2023-05-11T15:44:22.533Z,58.23
2023-05-11T15:46:37.450Z,57.85
2023-05-11T15:48:50.070Z,57.81
2023-05-11T15:51:03.937Z,57.81
2023-05-11T15:53:16.652Z,57.39
2023-05-11T15:55:31.840Z,56.61
2023-05-11T15:57:44.769Z,56.46
2023-05-11T15:59:57.426Z,56.44
2023-05-11T16:02:10.935Z,55.76
2023-05-11T16:04:23.483Z,55.65
2023-05-11T16:06:36.370Z,55.76
2023-05-11T16:08:49.592Z,55.88
2023-05-11T16:11:01.840Z,55.80
2023-05-11T16:13:15.177Z,55.98
2023-05-11T16:15:28.340Z,55.49
2023-05-11T16:17:43.378Z,55.55
2023-05-11T16:19:56.600Z,55.53
2023-05-11T16:22:09.160Z,55.06
2023-05-11T16:24:21.768Z,54.63
2023-05-11T16:26:34.658Z,54.44
2023-05-11T16:28:47.149Z,54.10
2023-05-11T16:31:00.251Z,53.57
2023-05-11T16:33:15.517Z,53.39
2023-05-11T16:35:27.841Z,53.18
2023-05-11T16:37:40.206Z,52.72
2023-05-11T16:39:53.605Z,52.55
2023-05-11T16:42:08.002Z,52.30
2023-05-11T16:44:20.742Z,51.72
2023-05-11T16:46:33.869Z,51.28
2023-05-11T16:48:47.569Z,51.01
2023-05-11T16:51:00.570Z,50.61
2023-05-11T16:53:14.556Z,50.23
2023-05-11T16:55:28.543Z,49.84
2023-05-11T16:57:41.357Z,49.23
2023-05-11T16:59:54.025Z,48.68
2023-05-11T17:02:09.435Z,48.24
2023-05-11T17:04:22.016Z,48.08
2023-05-11T17:06:38.396Z,47.53
2023-05-11T17:08:51.721Z,46.98
2023-05-11T17:11:04.288Z,46.26
2023-05-11T17:13:16.918Z,45.96
2023-05-11T17:15:29.554Z,45.85
2023-05-11T17:17:43.666Z,45.32
2023-05-11T17:19:56.836Z,44.84
2023-05-11T17:22:10.936Z,44.68
2023-05-11T17:24:24.431Z,44.17
2023-05-11T17:26:47.060Z,44.38
2023-05-11T17:29:01.267Z,44.26
2023-05-11T17:31:18.544Z,44.24
2023-05-11T17:33:31.910Z,44.57
2023-05-11T17:35:45.339Z,44.63
2023-05-11T17:37:57.959Z,44.74
2023-05-11T17:40:12.812Z,44.80
2023-05-11T17:42:26.030Z,45.05
2023-05-11T17:44:38.472Z,44.76
2023-05-11T17:46:53.010Z,44.86
2023-05-11T17:49:06.352Z,44.53
2023-05-11T17:51:19.405Z,44.54
2023-05-11T17:53:32.096Z,44.45
2023-05-11T17:55:46.305Z,44.07
2023-05-11T17:57:58.761Z,43.78
2023-05-11T18:00:13.986Z,43.58
2023-05-11T18:02:26.828Z,43.31
2023-05-11T18:04:39.801Z,43.05
2023-05-11T18:06:53.078Z,42.89
2023-05-11T18:09:06.993Z,43.17
2023-05-11T18:11:20.235Z,43.27
2023-05-11T18:13:33.571Z,43.36
2023-05-11T18:15:46.805Z,42.94
2023-05-11T18:17:59.330Z,42.88
2023-05-11T18:20:14.868Z,42.95
2023-05-11T18:22:31.255Z,42.66
2023-05-11T18:24:45.159Z,42.54
2023-05-11T18:26:57.442Z,42.48
2023-05-11T18:29:10.017Z,42.51
2023-05-11T18:31:22.856Z,42.49
2023-05-11T18:33:36.115Z,42.17
2023-05-11T18:35:49.134Z,42.16
2023-05-11T18:38:05.199Z,42.02
2023-05-11T18:40:19.245Z,41.97
2023-05-11T18:42:31.978Z,41.99
2023-05-11T18:44:44.138Z,41.86
2023-05-11T18:46:56.964Z,41.62
2023-05-11T18:49:12.783Z,41.33
2023-05-11T18:51:27.465Z,40.98
2023-05-11T18:53:40.936Z,40.96
2023-05-11T18:55:53.858Z,40.77
2023-05-11T18:58:08.625Z,40.56
2023-05-11T19:00:21.463Z,40.93
2023-05-11T19:02:34.580Z,40.97
2023-05-11T19:04:47.346Z,40.82
2023-05-11T19:07:01.493Z,40.58
2023-05-11T19:09:15.167Z,40.00
2023-05-11T19:11:28.418Z,39.96
2023-05-11T19:13:43.113Z,40.17
2023-05-11T19:15:56.081Z,40.15
2023-05-11T19:18:08.949Z,39.79
2023-05-11T19:20:21.780Z,39.71
2023-05-11T19:22:34.914Z,39.71
2023-05-11T19:24:48.368Z,39.53
2023-05-11T19:27:07.109Z,39.08
2023-05-11T19:29:23.487Z,39.05
2023-05-11T19:31:36.606Z,39.23
2023-05-11T19:33:49.303Z,39.38
2023-05-11T19:36:01.964Z,38.84
2023-05-11T19:38:15.232Z,38.52
2023-05-11T19:40:45.559Z,38.28
2023-05-11T19:42:59.996Z,38.04
2023-05-11T19:45:14.980Z,38.26
2023-05-11T19:47:28.109Z,38.01
2023-05-11T19:49:41.123Z,38.06
2023-05-11T19:51:55.008Z,38.02
2023-05-11T19:54:08.588Z,37.28
2023-05-11T19:56:22.072Z,37.29
2023-05-11T19:58:34.977Z,37.56
2023-05-11T20:00:47.881Z,37.92
2023-05-11T20:03:00.777Z,37.90
2023-05-11T20:05:15.092Z,37.79
2023-05-11T20:07:29.086Z,37.84
2023-05-11T20:09:42.710Z,37.81
2023-05-11T20:11:54.972Z,37.65
2023-05-11T20:14:07.954Z,37.42
2023-05-11T20:16:20.712Z,37.70
2023-05-11T20:18:36.756Z,37.67
2023-05-11T20:20:49.814Z,37.74
2023-05-11T20:23:06.513Z,37.78
2023-05-11T20:25:19.130Z,37.46
2023-05-11T20:27:33.919Z,37.52
2023-05-11T20:29:46.409Z,37.63
2023-05-11T20:31:59.405Z,37.74
2023-05-11T20:34:12.876Z,37.48
2023-05-11T20:36:25.606Z,37.20
2023-05-11T20:38:38.959Z,36.99
2023-05-11T20:40:51.623Z,37.17
2023-05-11T20:43:04.801Z,37.74
2023-05-11T20:45:18.216Z,37.80
2023-05-11T20:47:32.704Z,37.86
2023-05-11T20:49:45.267Z,37.87
2023-05-11T20:51:57.764Z,37.54
2023-05-11T20:54:10.795Z,36.94
2023-05-11T20:56:23.610Z,37.10
2023-05-11T20:58:38.193Z,37.15
2023-05-11T21:00:50.502Z,37.29
2023-05-11T21:03:03.251Z,37.50
2023-05-11T21:05:15.873Z,37.41
2023-05-11T21:07:29.469Z,37.07
2023-05-11T21:09:42.608Z,37.22
2023-05-11T21:11:54.988Z,37.03
2023-05-11T21:14:07.888Z,37.09
2023-05-11T21:16:20.282Z,37.37
2023-05-11T21:18:35.667Z,37.46
2023-05-11T21:20:48.376Z,37.85
2023-05-11T21:23:01.457Z,37.98
2023-05-11T21:25:15.452Z,37.68
2023-05-11T21:27:28.202Z,37.47
2023-05-11T21:29:42.444Z,37.91
2023-05-11T21:31:56.643Z,37.81
2023-05-11T21:34:09.356Z,37.90
2023-05-11T21:36:23.241Z,37.67
2023-05-11T21:38:36.128Z,37.46
2023-05-11T21:40:53.672Z,37.78
2023-05-11T21:43:07.204Z,37.62
2023-05-11T21:45:21.659Z,37.29
2023-05-11T21:47:34.419Z,37.04
2023-05-11T21:49:48.971Z,36.76
2023-05-11T21:52:02.843Z,36.72
2023-05-11T21:54:15.706Z,36.54
2023-05-11T21:56:28.016Z,36.38
2023-05-11T21:58:40.305Z,36.32
2023-05-11T22:00:53.271Z,36.13
2023-05-11T22:03:05.620Z,36.24
2023-05-11T22:05:19.018Z,36.40
2023-05-11T22:07:31.408Z,36.32
2023-05-11T22:09:44.252Z,36.48
2023-05-11T22:11:56.534Z,36.70
2023-05-11T22:14:08.997Z,36.70
2023-05-11T22:16:21.954Z,36.64
2023-05-11T22:18:34.882Z,36.70
2023-05-11T22:20:47.154Z,36.60
2023-05-11T22:22:59.622Z,36.31
2023-05-11T22:25:14.156Z,36.19
2023-05-11T22:27:27.275Z,36.07
2023-05-11T22:29:40.685Z,36.30
2023-05-11T22:31:53.136Z,35.87
2023-05-11T22:34:05.975Z,35.81
2023-05-11T22:36:18.873Z,36.11
2023-05-11T22:38:31.663Z,36.00
2023-05-11T22:40:44.112Z,35.97
2023-05-11T22:42:56.541Z,35.89
2023-05-11T22:45:09.592Z,36.04
2023-05-11T22:47:22.609Z,36.17
2023-05-11T22:49:35.072Z,36.24
2023-05-11T22:51:47.513Z,36.04
2023-05-11T22:53:59.979Z,36.08
2023-05-11T22:56:12.700Z,35.95
2023-05-11T22:58:26.169Z,35.36
2023-05-11T23:00:39.052Z,34.98
2023-05-11T23:02:51.953Z,34.68
2023-05-11T23:05:04.585Z,34.67
2023-05-11T23:07:17.019Z,34.77
2023-05-11T23:09:30.197Z,34.91
2023-05-11T23:11:42.837Z,34.95
2023-05-11T23:13:55.454Z,34.39
2023-05-11T23:16:08.126Z,34.54
2023-05-11T23:18:20.587Z,34.33
2023-05-11T23:20:33.438Z,34.37
2023-05-11T23:22:46.331Z,34.38
2023-05-11T23:25:01.430Z,34.80
2023-05-11T23:27:14.476Z,34.68
2023-05-11T23:29:28.120Z,34.48
2023-05-11T23:31:41.097Z,34.55
2023-05-11T23:33:54.213Z,34.40
2023-05-11T23:36:06.783Z,34.48
2023-05-11T23:38:19.458Z,34.42
2023-05-11T23:40:32.228Z,34.06
2023-05-11T23:42:44.708Z,34.02
2023-05-11T23:44:57.199Z,33.71
2023-05-11T23:47:10.630Z,33.93
2023-05-11T23:49:23.503Z,33.82
2023-05-11T23:51:36.353Z,33.80
2023-05-11T23:53:50.758Z,33.61
2023-05-11T23:56:03.121Z,33.81
2023-05-11T23:58:15.577Z,33.66
